sensor_id;sensor_type;location;lat;lon;timestamp;pressure;altitude;pressure_sealevel;temperature;humidity
2785;BME280;57944;48.722;9.316;2023-02-13T00:00:24;99977.41;;;0.56;100.00
2785;BME280;57944;48.722;9.316;2023-02-13T00:02:54;99974.63;;;0.44;100.00
2785;BME280;57944;48.722;9.316;2023-02-13T00:05:26;99975.09;;;0.35;100.00
2785;BME280;57944;48.722;9.316;2023-02-13T00:07:56;99971.03;;;0.33;100.00
2785;BME280;57944;48.722;9.316;2023-02-13T00:10:27;99969.91;;;0.22;100.00
2785;BME280;57944;48.722;9.316;2023-02-13T00:12:57;99973.91;;;0.25;100.00
2785;BME280;57944;48.722;9.316;2023-02-13T00:15:27;99971.56;;;0.22;100.00
2785;BME280;57944;48.722;9.316;2023-02-13T00:17:57;99979.09;;;0.22;100.00
2785;BME280;57944;48.722;9.316;2023-02-13T00:20:30;99972.34;;;0.40;100.00
2785;BME280;57944;48.722;9.316;2023-02-13T00:23:00;99980.91;;;0.36;100.00
2785;BME280;57944;48.722;9.316;2023-02-13T00:25:30;99973.53;;;0.33;100.00
2785;BME280;57944;48.722;9.316;2023-02-13T00:28:00;99969.69;;;0.43;100.00
2785;BME280;57944;48.722;9.316;2023-02-13T00:30:30;99970.06;;;0.35;100.00
2785;BME280;57944;48.722;9.316;2023-02-13T00:33:00;99967.09;;;0.44;100.00
2785;BME280;57944;48.722;9.316;2023-02-13T00:35:32;99968.63;;;0.47;100.00
2785;BME280;57944;48.722;9.316;2023-02-13T00:38:03;99975.28;;;0.48;100.00
2785;BME280;57944;48.722;9.316;2023-02-13T00:40:33;99970.53;;;0.59;100.00
2785;BME280;57944;48.722;9.316;2023-02-13T00:43:03;99977.81;;;0.64;100.00
2785;BME280;57944;48.722;9.316;2023-02-13T00:45:35;99978.06;;;0.59;100.00
2785;BME280;57944;48.722;9.316;2023-02-13T00:48:05;99970.75;;;0.55;100.00
2785;BME280;57944;48.722;9.316;2023-02-13T00:50:37;99972.34;;;0.40;100.00
2785;BME280;57944;48.722;9.316;2023-02-13T00:53:08;99977.41;;;0.22;100.00
2785;BME280;57944;48.722;9.316;2023-02-13T00:55:38;99973.00;;;0.10;100.00
2785;BME280;57944;48.722;9.316;2023-02-13T00:58:09;99973.75;;;0.12;100.00
2785;BME280;57944;48.722;9.316;2023-02-13T01:00:39;99969.91;;;0.05;100.00
2785;BME280;57944;48.722;9.316;2023-02-13T01:03:10;99972.66;;;0.01;100.00
2785;BME280;57944;48.722;9.316;2023-02-13T01:05:43;99966.75;;;0.02;100.00
2785;BME280;57944;48.722;9.316;2023-02-13T01:08:16;99964.75;;;-0.09;100.00
2785;BME280;57944;48.722;9.316;2023-02-13T01:10:47;99964.91;;;-0.12;100.00
2785;BME280;57944;48.722;9.316;2023-02-13T01:13:17;99960.63;;;-0.10;100.00
2785;BME280;57944;48.722;9.316;2023-02-13T01:15:48;99956.38;;;-0.08;100.00
2785;BME280;57944;48.722;9.316;2023-02-13T01:18:19;99959.44;;;-0.03;100.00
2785;BME280;57944;48.722;9.316;2023-02-13T01:21:01;99963.28;;;0.04;100.00
2785;BME280;57944;48.722;9.316;2023-02-13T01:23:35;99965.78;;;0.04;100.00
2785;BME280;57944;48.722;9.316;2023-02-13T01:26:08;99968.00;;;-0.07;100.00
2785;BME280;57944;48.722;9.316;2023-02-13T01:28:39;99961.75;;;-0.16;100.00
2785;BME280;57944;48.722;9.316;2023-02-13T01:31:10;99959.47;;;-0.20;100.00
2785;BME280;57944;48.722;9.316;2023-02-13T01:33:41;99962.91;;;-0.23;100.00
2785;BME280;57944;48.722;9.316;2023-02-13T01:36:14;99960.56;;;-0.09;100.00
2785;BME280;57944;48.722;9.316;2023-02-13T01:38:45;99967.25;;;0.08;100.00
2785;BME280;57944;48.722;9.316;2023-02-13T01:41:14;99962.75;;;0.15;100.00
2785;BME280;57944;48.722;9.316;2023-02-13T01:43:49;99955.97;;;0.33;100.00
2785;BME280;57944;48.722;9.316;2023-02-13T01:46:29;99957.63;;;0.34;100.00
2785;BME280;57944;48.722;9.316;2023-02-13T01:49:10;99962.81;;;0.47;100.00
2785;BME280;57944;48.722;9.316;2023-02-13T01:51:51;99957.31;;;0.40;100.00
2785;BME280;57944;48.722;9.316;2023-02-13T01:54:27;99951.28;;;0.27;100.00
2785;BME280;57944;48.722;9.316;2023-02-13T01:57:04;99960.47;;;0.10;100.00
2785;BME280;57944;48.722;9.316;2023-02-13T01:59:41;99954.72;;;-0.09;100.00
2785;BME280;57944;48.722;9.316;2023-02-13T02:02:14;99952.22;;;-0.09;100.00
2785;BME280;57944;48.722;9.316;2023-02-13T02:04:45;99960.94;;;-0.16;100.00
2785;BME280;57944;48.722;9.316;2023-02-13T02:07:25;99955.22;;;0.15;100.00
2785;BME280;57944;48.722;9.316;2023-02-13T02:10:08;99947.72;;;0.15;100.00
2785;BME280;57944;48.722;9.316;2023-02-13T02:12:46;99956.31;;;0.27;100.00
2785;BME280;57944;48.722;9.316;2023-02-13T02:15:19;99949.25;;;0.17;100.00
2785;BME280;57944;48.722;9.316;2023-02-13T02:17:50;99950.91;;;0.01;100.00
2785;BME280;57944;48.722;9.316;2023-02-13T02:20:36;99946.63;;;-0.14;100.00
2785;BME280;57944;48.722;9.316;2023-02-13T02:24:00;99942.81;;;-0.39;100.00
2785;BME280;57944;48.722;9.316;2023-02-13T02:26:58;99941.63;;;-0.32;100.00
2785;BME280;57944;48.722;9.316;2023-02-13T02:30:22;99953.50;;;-0.18;100.00
2785;BME280;57944;48.722;9.316;2023-02-13T02:33:16;99948.25;;;-0.13;100.00
2785;BME280;57944;48.722;9.316;2023-02-13T02:36:08;99943.47;;;-0.35;100.00
2785;BME280;57944;48.722;9.316;2023-02-13T02:39:00;99939.13;;;-0.49;100.00
2785;BME280;57944;48.722;9.316;2023-02-13T02:41:51;99948.69;;;-0.40;100.00
2785;BME280;57944;48.722;9.316;2023-02-13T02:44:33;99947.69;;;-0.36;100.00
2785;BME280;57944;48.722;9.316;2023-02-13T02:47:17;99944.28;;;-0.35;100.00
2785;BME280;57944;48.722;9.316;2023-02-13T02:50:25;99941.72;;;-0.33;100.00
2785;BME280;57944;48.722;9.316;2023-02-13T02:53:16;99942.81;;;-0.39;100.00
2785;BME280;57944;48.722;9.316;2023-02-13T02:55:54;99950.03;;;-0.33;100.00
2785;BME280;57944;48.722;9.316;2023-02-13T02:58:33;99946.50;;;-0.46;100.00
2785;BME280;57944;48.722;9.316;2023-02-13T03:01:24;99941.19;;;-0.40;100.00
2785;BME280;57944;48.722;9.316;2023-02-13T03:04:17;99949.22;;;-0.51;100.00
2785;BME280;57944;48.722;9.316;2023-02-13T03:07:08;99945.09;;;-0.69;100.00
2785;BME280;57944;48.722;9.316;2023-02-13T03:09:46;99945.78;;;-0.84;100.00
2785;BME280;57944;48.722;9.316;2023-02-13T03:12:37;99947.44;;;-1.02;100.00
2785;BME280;57944;48.722;9.316;2023-02-13T03:15:24;99954.19;;;-1.04;100.00
2785;BME280;57944;48.722;9.316;2023-02-13T03:17:56;99955.81;;;-1.03;100.00
2785;BME280;57944;48.722;9.316;2023-02-13T03:20:45;99952.31;;;-0.99;100.00
2785;BME280;57944;48.722;9.316;2023-02-13T03:23:48;99946.97;;;-0.92;100.00
2785;BME280;57944;48.722;9.316;2023-02-13T03:26:37;99960.94;;;-0.87;100.00
2785;BME280;57944;48.722;9.316;2023-02-13T03:29:28;99962.69;;;-0.90;100.00
2785;BME280;57944;48.722;9.316;2023-02-13T03:32:25;99966.56;;;-1.01;100.00
2785;BME280;57944;48.722;9.316;2023-02-13T03:35:12;99962.19;;;-1.15;100.00
2785;BME280;57944;48.722;9.316;2023-02-13T03:38:04;99968.41;;;-1.24;100.00
2785;BME280;57944;48.722;9.316;2023-02-13T03:40:47;99970.56;;;-1.16;100.00
2785;BME280;57944;48.722;9.316;2023-02-13T03:43:40;99971.66;;;-1.22;100.00
2785;BME280;57944;48.722;9.316;2023-02-13T03:46:13;99968.97;;;-1.36;100.00
2785;BME280;57944;48.722;9.316;2023-02-13T03:48:45;99973.63;;;-1.47;100.00
2785;BME280;57944;48.722;9.316;2023-02-13T03:51:33;99989.69;;;-1.34;100.00
2785;BME280;57944;48.722;9.316;2023-02-13T03:54:16;99983.75;;;-1.50;100.00
2785;BME280;57944;48.722;9.316;2023-02-13T03:56:50;99984.91;;;-1.39;100.00
2785;BME280;57944;48.722;9.316;2023-02-13T03:59:36;99984.34;;;-1.45;100.00
2785;BME280;57944;48.722;9.316;2023-02-13T04:02:11;99989.94;;;-1.59;100.00
2785;BME280;57944;48.722;9.316;2023-02-13T04:04:49;99990.75;;;-1.79;100.00
2785;BME280;57944;48.722;9.316;2023-02-13T04:07:23;99990.03;;;-1.42;100.00
2785;BME280;57944;48.722;9.316;2023-02-13T04:10:05;99994.34;;;-1.45;100.00
2785;BME280;57944;48.722;9.316;2023-02-13T04:12:50;100000.13;;;-1.64;100.00
2785;BME280;57944;48.722;9.316;2023-02-13T04:15:28;99999.06;;;-1.78;100.00
2785;BME280;57944;48.722;9.316;2023-02-13T04:18:08;99995.69;;;-1.98;100.00
2785;BME280;57944;48.722;9.316;2023-02-13T04:20:40;100002.09;;;-1.91;100.00
2785;BME280;57944;48.722;9.316;2023-02-13T04:23:11;99997.31;;;-1.76;100.00
2785;BME280;57944;48.722;9.316;2023-02-13T04:25:46;100001.78;;;-1.83;100.00
2785;BME280;57944;48.722;9.316;2023-02-13T04:28:19;99999.91;;;-1.78;100.00
2785;BME280;57944;48.722;9.316;2023-02-13T04:30:49;100003.38;;;-1.62;100.00
2785;BME280;57944;48.722;9.316;2023-02-13T04:33:19;100011.00;;;-1.65;100.00
2785;BME280;57944;48.722;9.316;2023-02-13T04:35:49;100002.28;;;-1.75;100.00
2785;BME280;57944;48.722;9.316;2023-02-13T04:38:19;100004.88;;;-1.98;100.00
2785;BME280;57944;48.722;9.316;2023-02-13T04:40:49;100004.03;;;-1.97;100.00
2785;BME280;57944;48.722;9.316;2023-02-13T04:43:22;100000.66;;;-1.96;100.00
2785;BME280;57944;48.722;9.316;2023-02-13T04:45:52;100001.75;;;-2.04;100.00
2785;BME280;57944;48.722;9.316;2023-02-13T04:48:22;99997.47;;;-2.00;100.00
2785;BME280;57944;48.722;9.316;2023-02-13T04:50:55;99990.84;;;-2.01;100.00
2785;BME280;57944;48.722;9.316;2023-02-13T04:53:26;99998.03;;;-2.14;100.00
2785;BME280;57944;48.722;9.316;2023-02-13T04:55:56;100000.78;;;-2.20;100.00
2785;BME280;57944;48.722;9.316;2023-02-13T04:58:28;99998.69;;;-2.31;100.00
2785;BME280;57944;48.722;9.316;2023-02-13T05:00:58;100007.69;;;-2.27;100.00
2785;BME280;57944;48.722;9.316;2023-02-13T05:03:28;100012.22;;;-2.36;100.00
2785;BME280;57944;48.722;9.316;2023-02-13T05:05:58;100013.22;;;-2.40;100.00
2785;BME280;57944;48.722;9.316;2023-02-13T05:08:28;100013.69;;;-2.53;100.00
2785;BME280;57944;48.722;9.316;2023-02-13T05:10:58;100018.97;;;-2.60;100.00
2785;BME280;57944;48.722;9.316;2023-02-13T05:13:31;100017.16;;;-2.57;100.00
2785;BME280;57944;48.722;9.316;2023-02-13T05:16:01;100014.94;;;-2.42;100.00
2785;BME280;57944;48.722;9.316;2023-02-13T05:18:31;100008.81;;;-2.56;100.00
2785;BME280;57944;48.722;9.316;2023-02-13T05:21:01;100006.97;;;-2.51;100.00
2785;BME280;57944;48.722;9.316;2023-02-13T05:23:44;100011.13;;;-2.51;100.00
2785;BME280;57944;48.722;9.316;2023-02-13T05:26:14;100018.09;;;-2.59;100.00
2785;BME280;57944;48.722;9.316;2023-02-13T05:28:46;100017.28;;;-2.60;100.00
2785;BME280;57944;48.722;9.316;2023-02-13T05:31:29;100016.75;;;-2.68;100.00
2785;BME280;57944;48.722;9.316;2023-02-13T05:33:59;100018.72;;;-2.76;100.00
2785;BME280;57944;48.722;9.316;2023-02-13T05:36:29;100017.69;;;-2.71;100.00
2785;BME280;57944;48.722;9.316;2023-02-13T05:38:59;100025.16;;;-2.71;100.00
2785;BME280;57944;48.722;9.316;2023-02-13T05:41:29;100021.75;;;-2.68;100.00
2785;BME280;57944;48.722;9.316;2023-02-13T05:44:03;100025.41;;;-2.77;100.00
2785;BME280;57944;48.722;9.316;2023-02-13T05:46:33;100016.22;;;-2.76;100.00
2785;BME280;57944;48.722;9.316;2023-02-13T05:49:06;100013.97;;;-2.82;100.00
2785;BME280;57944;48.722;9.316;2023-02-13T05:51:37;100022.97;;;-2.78;100.00
2785;BME280;57944;48.722;9.316;2023-02-13T05:54:08;100021.44;;;-2.82;100.00
2785;BME280;57944;48.722;9.316;2023-02-13T05:56:38;100009.09;;;-2.85;100.00
2785;BME280;57944;48.722;9.316;2023-02-13T05:59:10;100008.50;;;-2.92;100.00
2785;BME280;57944;48.722;9.316;2023-02-13T06:01:40;100010.28;;;-2.96;100.00
2785;BME280;57944;48.722;9.316;2023-02-13T06:04:14;100012.16;;;-3.01;100.00
2785;BME280;57944;48.722;9.316;2023-02-13T06:06:44;100016.59;;;-3.09;100.00
2785;BME280;57944;48.722;9.316;2023-02-13T06:09:14;100009.13;;;-3.09;100.00
2785;BME280;57944;48.722;9.316;2023-02-13T06:11:44;100009.00;;;-3.06;100.00
2785;BME280;57944;48.722;9.316;2023-02-13T06:14:17;100011.44;;;-3.04;100.00
2785;BME280;57944;48.722;9.316;2023-02-13T06:16:47;100014.97;;;-3.10;100.00
2785;BME280;57944;48.722;9.316;2023-02-13T06:19:17;100014.13;;;-3.09;100.00
2785;BME280;57944;48.722;9.316;2023-02-13T06:21:47;100014.22;;;-3.12;100.00
2785;BME280;57944;48.722;9.316;2023-02-13T06:24:17;100020.06;;;-3.13;100.00
2785;BME280;57944;48.722;9.316;2023-02-13T06:26:47;100010.84;;;-3.11;100.00
2785;BME280;57944;48.722;9.316;2023-02-13T06:29:20;100021.53;;;-3.07;100.00
2785;BME280;57944;48.722;9.316;2023-02-13T06:31:50;100023.97;;;-3.06;100.00
2785;BME280;57944;48.722;9.316;2023-02-13T06:34:20;100025.47;;;-3.02;100.00
2785;BME280;57944;48.722;9.316;2023-02-13T06:36:50;100033.50;;;-2.94;100.00
2785;BME280;57944;48.722;9.316;2023-02-13T06:39:20;100021.69;;;-2.88;100.00
2785;BME280;57944;48.722;9.316;2023-02-13T06:41:50;100032.84;;;-2.75;100.00
2785;BME280;57944;48.722;9.316;2023-02-13T06:44:22;100033.19;;;-2.40;100.00
2785;BME280;57944;48.722;9.316;2023-02-13T06:46:52;100031.44;;;-2.16;100.00
2785;BME280;57944;48.722;9.316;2023-02-13T06:49:22;100022.59;;;-2.03;100.00
2785;BME280;57944;48.722;9.316;2023-02-13T06:51:52;100022.28;;;-1.75;100.00
2785;BME280;57944;48.722;9.316;2023-02-13T06:54:22;100033.94;;;-1.55;100.00
2785;BME280;57944;48.722;9.316;2023-02-13T06:57:12;100030.06;;;-1.62;100.00
2785;BME280;57944;48.722;9.316;2023-02-13T06:59:45;100045.06;;;-1.83;100.00
2785;BME280;57944;48.722;9.316;2023-02-13T07:02:15;100037.69;;;-2.06;100.00
2785;BME280;57944;48.722;9.316;2023-02-13T07:04:45;100033.84;;;-2.15;100.00
2785;BME280;57944;48.722;9.316;2023-02-13T07:07:15;100036.06;;;-2.29;100.00
2785;BME280;57944;48.722;9.316;2023-02-13T07:09:45;100033.66;;;-2.31;100.00
2785;BME280;57944;48.722;9.316;2023-02-13T07:12:15;100039.19;;;-2.44;100.00
2785;BME280;57944;48.722;9.316;2023-02-13T07:14:47;100045.13;;;-2.49;100.00
2785;BME280;57944;48.722;9.316;2023-02-13T07:17:17;100042.25;;;-2.38;100.00
2785;BME280;57944;48.722;9.316;2023-02-13T07:19:47;100044.22;;;-2.24;100.00
2785;BME280;57944;48.722;9.316;2023-02-13T07:22:17;100045.25;;;-2.08;100.00
2785;BME280;57944;48.722;9.316;2023-02-13T07:24:48;100057.34;;;-1.98;100.00
2785;BME280;57944;48.722;9.316;2023-02-13T07:27:18;100048.38;;;-2.03;100.00
2785;BME280;57944;48.722;9.316;2023-02-13T07:29:50;100055.78;;;-2.01;100.00
2785;BME280;57944;48.722;9.316;2023-02-13T07:32:20;100060.63;;;-1.76;100.00
2785;BME280;57944;48.722;9.316;2023-02-13T07:34:50;100053.13;;;-1.55;100.00
2785;BME280;57944;48.722;9.316;2023-02-13T07:37:29;100061.69;;;-1.61;100.00
2785;BME280;57944;48.722;9.316;2023-02-13T07:39:59;100056.00;;;-1.85;100.00
2785;BME280;57944;48.722;9.316;2023-02-13T07:42:32;100066.25;;;-1.91;100.00
2785;BME280;57944;48.722;9.316;2023-02-13T07:45:07;100058.06;;;-1.74;100.00
2785;BME280;57944;48.722;9.316;2023-02-13T07:47:37;100063.88;;;-1.53;100.00
2785;BME280;57944;48.722;9.316;2023-02-13T07:50:09;100065.88;;;-1.41;100.00
2785;BME280;57944;48.722;9.316;2023-02-13T07:52:39;100070.97;;;-1.24;100.00
2785;BME280;57944;48.722;9.316;2023-02-13T07:55:09;100071.19;;;-1.09;100.00
2785;BME280;57944;48.722;9.316;2023-02-13T07:57:40;100069.78;;;-0.96;100.00
2785;BME280;57944;48.722;9.316;2023-02-13T08:00:15;100064.03;;;-0.79;100.00
2785;BME280;57944;48.722;9.316;2023-02-13T08:02:45;100064.84;;;-0.60;100.00
2785;BME280;57944;48.722;9.316;2023-02-13T08:05:15;100065.91;;;-0.47;100.00
2785;BME280;57944;48.722;9.316;2023-02-13T08:07:45;100066.16;;;-0.34;100.00
2785;BME280;57944;48.722;9.316;2023-02-13T08:10:16;100064.81;;;-0.41;100.00
2785;BME280;57944;48.722;9.316;2023-02-13T08:12:59;100063.44;;;-0.29;100.00
2785;BME280;57944;48.722;9.316;2023-02-13T08:15:32;100058.47;;;-0.48;100.00
2785;BME280;57944;48.722;9.316;2023-02-13T08:18:02;100066.91;;;-0.32;100.00
2785;BME280;57944;48.722;9.316;2023-02-13T08:20:32;100068.41;;;-0.10;100.00
2785;BME280;57944;48.722;9.316;2023-02-13T08:23:02;100067.81;;;0.02;100.00
2785;BME280;57944;48.722;9.316;2023-02-13T08:25:33;100071.38;;;0.15;100.00
2785;BME280;57944;48.722;9.316;2023-02-13T08:28:04;100071.06;;;0.21;100.00
2785;BME280;57944;48.722;9.316;2023-02-13T08:30:36;100073.16;;;0.31;100.00
2785;BME280;57944;48.722;9.316;2023-02-13T08:33:06;100072.69;;;0.40;100.00
2785;BME280;57944;48.722;9.316;2023-02-13T08:35:36;100064.53;;;0.52;100.00
2785;BME280;57944;48.722;9.316;2023-02-13T08:38:08;100061.72;;;0.58;100.00
2785;BME280;57944;48.722;9.316;2023-02-13T08:40:38;100060.13;;;0.57;100.00
2785;BME280;57944;48.722;9.316;2023-02-13T08:43:08;100064.66;;;0.66;100.00
2785;BME280;57944;48.722;9.316;2023-02-13T08:45:40;100058.63;;;0.71;100.00
2785;BME280;57944;48.722;9.316;2023-02-13T08:48:10;100059.78;;;0.81;100.00
2785;BME280;57944;48.722;9.316;2023-02-13T08:50:40;100060.03;;;0.92;100.00
2785;BME280;57944;48.722;9.316;2023-02-13T08:53:10;100057.59;;;0.91;100.00
2785;BME280;57944;48.722;9.316;2023-02-13T08:55:40;100048.19;;;0.94;100.00
2785;BME280;57944;48.722;9.316;2023-02-13T08:58:10;100053.56;;;1.20;100.00
2785;BME280;57944;48.722;9.316;2023-02-13T09:00:43;100047.22;;;1.44;100.00
2785;BME280;57944;48.722;9.316;2023-02-13T09:03:13;100052.09;;;1.47;100.00
2785;BME280;57944;48.722;9.316;2023-02-13T09:05:44;100041.88;;;1.50;100.00
2785;BME280;57944;48.722;9.316;2023-02-13T09:08:14;100051.84;;;1.52;100.00
2785;BME280;57944;48.722;9.316;2023-02-13T09:10:45;100050.94;;;1.69;100.00
2785;BME280;57944;48.722;9.316;2023-02-13T09:13:15;100057.66;;;1.84;100.00
2785;BME280;57944;48.722;9.316;2023-02-13T09:15:47;100041.13;;;1.94;100.00
2785;BME280;57944;48.722;9.316;2023-02-13T09:18:17;100047.31;;;1.89;100.00
2785;BME280;57944;48.722;9.316;2023-02-13T09:20:47;100046.72;;;1.99;100.00
2785;BME280;57944;48.722;9.316;2023-02-13T09:23:17;100052.53;;;2.16;100.00
2785;BME280;57944;48.722;9.316;2023-02-13T09:25:47;100048.41;;;2.29;100.00
2785;BME280;57944;48.722;9.316;2023-02-13T09:28:17;100049.59;;;2.38;100.00
2785;BME280;57944;48.722;9.316;2023-02-13T09:30:49;100045.00;;;2.30;100.00
2785;BME280;57944;48.722;9.316;2023-02-13T09:33:20;100053.09;;;2.35;100.00
2785;BME280;57944;48.722;9.316;2023-02-13T09:35:50;100056.50;;;2.34;100.00
2785;BME280;57944;48.722;9.316;2023-02-13T09:38:21;100061.78;;;2.15;100.00
2785;BME280;57944;48.722;9.316;2023-02-13T09:40:55;100052.34;;;2.19;100.00
2785;BME280;57944;48.722;9.316;2023-02-13T09:43:30;100058.91;;;2.21;100.00
2785;BME280;57944;48.722;9.316;2023-02-13T09:46:12;100051.72;;;2.15;100.00
2785;BME280;57944;48.722;9.316;2023-02-13T09:48:49;100058.88;;;2.07;100.00
2785;BME280;57944;48.722;9.316;2023-02-13T09:51:21;100060.88;;;2.16;100.00
2785;BME280;57944;48.722;9.316;2023-02-13T09:53:58;100056.47;;;2.20;100.00
2785;BME280;57944;48.722;9.316;2023-02-13T09:56:40;100053.00;;;2.37;100.00
2785;BME280;57944;48.722;9.316;2023-02-13T09:59:42;100060.66;;;2.64;100.00
2785;BME280;57944;48.722;9.316;2023-02-13T10:02:35;100060.47;;;2.81;100.00
2785;BME280;57944;48.722;9.316;2023-02-13T10:05:26;100054.91;;;2.90;100.00
2785;BME280;57944;48.722;9.316;2023-02-13T10:08:03;100060.66;;;3.07;100.00
2785;BME280;57944;48.722;9.316;2023-02-13T10:10:49;100050.91;;;3.15;100.00
2785;BME280;57944;48.722;9.316;2023-02-13T10:13:43;100056.56;;;3.19;100.00
2785;BME280;57944;48.722;9.316;2023-02-13T10:16:21;100061.41;;;3.22;100.00
2785;BME280;57944;48.722;9.316;2023-02-13T10:19:00;100062.72;;;3.42;100.00
2785;BME280;57944;48.722;9.316;2023-02-13T10:21:39;100065.50;;;3.51;100.00
2785;BME280;57944;48.722;9.316;2023-02-13T10:24:26;100064.19;;;3.58;100.00
2785;BME280;57944;48.722;9.316;2023-02-13T10:27:04;100055.88;;;3.71;100.00
2785;BME280;57944;48.722;9.316;2023-02-13T10:29:45;100063.50;;;3.96;100.00
2785;BME280;57944;48.722;9.316;2023-02-13T10:32:41;100062.81;;;4.07;100.00
2785;BME280;57944;48.722;9.316;2023-02-13T10:35:26;100062.94;;;4.18;100.00
2785;BME280;57944;48.722;9.316;2023-02-13T10:37:59;100056.66;;;4.37;100.00
2785;BME280;57944;48.722;9.316;2023-02-13T10:40:39;100057.28;;;4.40;100.00
2785;BME280;57944;48.722;9.316;2023-02-13T10:43:19;100056.28;;;4.30;100.00
2785;BME280;57944;48.722;9.316;2023-02-13T10:46:02;100053.25;;;4.63;100.00
2785;BME280;57944;48.722;9.316;2023-02-13T10:49:01;100046.94;;;4.82;100.00
2785;BME280;57944;48.722;9.316;2023-02-13T10:51:46;100040.66;;;5.00;100.00
2785;BME280;57944;48.722;9.316;2023-02-13T10:54:33;100033.25;;;5.10;100.00
2785;BME280;57944;48.722;9.316;2023-02-13T10:57:20;100036.38;;;5.13;100.00
2785;BME280;57944;48.722;9.316;2023-02-13T11:00:09;100037.97;;;5.14;100.00
2785;BME280;57944;48.722;9.316;2023-02-13T11:02:41;100023.00;;;5.11;100.00
2785;BME280;57944;48.722;9.316;2023-02-13T11:05:18;100018.72;;;5.25;100.00
2785;BME280;57944;48.722;9.316;2023-02-13T11:07:52;100022.97;;;5.24;100.00
2785;BME280;57944;48.722;9.316;2023-02-13T11:10:25;100014.56;;;5.48;100.00
2785;BME280;57944;48.722;9.316;2023-02-13T11:12:55;100011.03;;;5.50;100.00
2785;BME280;57944;48.722;9.316;2023-02-13T11:15:28;100007.31;;;5.43;100.00
2785;BME280;57944;48.722;9.316;2023-02-13T11:18:08;100014.44;;;5.73;100.00
2785;BME280;57944;48.722;9.316;2023-02-13T11:20:45;100021.03;;;5.87;100.00
2785;BME280;57944;48.722;9.316;2023-02-13T11:23:37;100010.63;;;6.03;100.00
2785;BME280;57944;48.722;9.316;2023-02-13T11:26:13;100014.09;;;6.02;100.00
2785;BME280;57944;48.722;9.316;2023-02-13T11:28:52;100006.38;;;6.03;100.00
2785;BME280;57944;48.722;9.316;2023-02-13T11:31:27;100011.44;;;6.03;100.00
2785;BME280;57944;48.722;9.316;2023-02-13T11:34:21;100013.66;;;6.08;100.00
2785;BME280;57944;48.722;9.316;2023-02-13T11:37:06;100014.69;;;6.17;100.00
2785;BME280;57944;48.722;9.316;2023-02-13T11:39:39;100009.38;;;6.09;100.00
2785;BME280;57944;48.722;9.316;2023-02-13T11:42:13;100008.72;;;6.29;100.00
2785;BME280;57944;48.722;9.316;2023-02-13T11:44:50;100006.41;;;6.26;100.00
2785;BME280;57944;48.722;9.316;2023-02-13T11:47:35;100005.03;;;6.22;100.00
2785;BME280;57944;48.722;9.316;2023-02-13T11:50:21;99999.28;;;6.31;100.00
2785;BME280;57944;48.722;9.316;2023-02-13T11:52:57;99998.34;;;6.21;100.00
2785;BME280;57944;48.722;9.316;2023-02-13T11:55:35;99992.84;;;6.49;100.00
2785;BME280;57944;48.722;9.316;2023-02-13T11:58:24;99993.75;;;6.60;100.00
2785;BME280;57944;48.722;9.316;2023-02-13T12:01:13;99998.47;;;6.64;100.00
2785;BME280;57944;48.722;9.316;2023-02-13T12:04:06;99989.84;;;6.22;100.00
2785;BME280;57944;48.722;9.316;2023-02-13T12:07:00;99995.13;;;6.53;100.00
2785;BME280;57944;48.722;9.316;2023-02-13T12:09:31;99992.94;;;6.70;100.00
2785;BME280;57944;48.722;9.316;2023-02-13T12:12:05;99983.38;;;6.85;100.00
2785;BME280;57944;48.722;9.316;2023-02-13T12:14:41;99985.41;;;6.91;100.00
2785;BME280;57944;48.722;9.316;2023-02-13T12:17:16;99986.78;;;6.96;100.00
2785;BME280;57944;48.722;9.316;2023-02-13T12:19:58;99984.25;;;6.96;100.00
2785;BME280;57944;48.722;9.316;2023-02-13T12:22:40;99977.75;;;7.14;100.00
2785;BME280;57944;48.722;9.316;2023-02-13T12:25:47;99977.41;;;7.07;100.00
2785;BME280;57944;48.722;9.316;2023-02-13T12:28:41;99984.44;;;7.04;100.00
2785;BME280;57944;48.722;9.316;2023-02-13T12:31:38;99974.03;;;7.18;100.00
2785;BME280;57944;48.722;9.316;2023-02-13T12:34:49;99973.47;;;7.14;100.00
2785;BME280;57944;48.722;9.316;2023-02-13T12:37:50;99981.69;;;7.07;100.00
2785;BME280;57944;48.722;9.316;2023-02-13T12:40:56;99980.06;;;7.06;100.00
2785;BME280;57944;48.722;9.316;2023-02-13T12:43:57;99973.63;;;7.02;100.00
2785;BME280;57944;48.722;9.316;2023-02-13T12:46:40;99970.41;;;7.00;100.00
2785;BME280;57944;48.722;9.316;2023-02-13T12:49:45;99963.56;;;7.11;100.00
2785;BME280;57944;48.722;9.316;2023-02-13T12:52:37;99969.63;;;7.31;100.00
2785;BME280;57944;48.722;9.316;2023-02-13T12:55:24;99965.34;;;7.32;100.00
2785;BME280;57944;48.722;9.316;2023-02-13T12:58:14;99961.84;;;7.44;100.00
2785;BME280;57944;48.722;9.316;2023-02-13T13:00:57;99973.44;;;7.58;100.00
2785;BME280;57944;48.722;9.316;2023-02-13T13:03:40;99958.66;;;7.52;100.00
2785;BME280;57944;48.722;9.316;2023-02-13T13:06:32;99966.47;;;7.60;100.00
2785;BME280;57944;48.722;9.316;2023-02-13T13:09:30;99957.44;;;7.67;100.00
2785;BME280;57944;48.722;9.316;2023-02-13T13:12:16;99949.84;;;7.67;100.00
2785;BME280;57944;48.722;9.316;2023-02-13T13:14:58;99953.44;;;7.86;100.00
2785;BME280;57944;48.722;9.316;2023-02-13T13:17:52;99945.97;;;7.94;100.00
2785;BME280;57944;48.722;9.316;2023-02-13T13:20:45;99941.13;;;7.91;100.00
2785;BME280;57944;48.722;9.316;2023-02-13T13:23:23;99942.41;;;7.75;100.00
2785;BME280;57944;48.722;9.316;2023-02-13T13:26:08;99941.03;;;7.92;100.00
2785;BME280;57944;48.722;9.316;2023-02-13T13:28:46;99939.03;;;7.96;100.00
2785;BME280;57944;48.722;9.316;2023-02-13T13:31:19;99938.47;;;7.92;100.00
2785;BME280;57944;48.722;9.316;2023-02-13T13:34:00;99941.63;;;8.05;100.00
2785;BME280;57944;48.722;9.316;2023-02-13T13:36:42;99945.13;;;8.14;100.00
2785;BME280;57944;48.722;9.316;2023-02-13T13:39:28;99952.78;;;8.24;100.00
2785;BME280;57944;48.722;9.316;2023-02-13T13:42:12;99937.78;;;8.21;100.00
2785;BME280;57944;48.722;9.316;2023-02-13T13:45:10;99938.44;;;8.13;100.00
2785;BME280;57944;48.722;9.316;2023-02-13T13:48:20;99937.59;;;8.03;100.00
2785;BME280;57944;48.722;9.316;2023-02-13T13:50:59;99940.94;;;8.03;100.00
2785;BME280;57944;48.722;9.316;2023-02-13T13:53:29;99936.91;;;8.01;100.00